Terminal Aerodrome Forecast
Issued by NWS

Home | Current Version | Previous Version | Text Only | Print | Product List | Glossary Off
Versions: 1 2 3 4 5 6 7 8 9 10 11 12 13 14 15 16 17 18 19 20 21 22 23 24

000
FTUS42 KMHX 241100
TAFOAJ
TAF
KOAJ 241135Z 2412/2512 23008KT P6SM SCT035 BKN100
     FM241800 27010KT P6SM VCTS BKN050CB
     FM250400 34005KT P6SM SCT030 BKN120
     FM250800 00000KT 3SM BR SCT007
      AMD LTD TO CLD VIS AND WIND=

USA.gov is the U.S. government's official web portal to all federal, state and local government web resources and services.